Time;durP1;ratioP1;P1;durP2;ratioP2;P2;SDS_P1;SDS_P2;PMS_P1;PMS_P2;Temp;Humidity;BMP_temperature;BMP_pressure;BME280_temperature;BME280_humidity;BME280_pressure;Samples;Min_cycle;Max_cycle;Signal;HPM_P1;HPM_P2
2023/03/01 00:01:50;;;;;;;7.00;3.55;;;;;;;;;;4993562;28;20198;-62
2023/03/01 00:04:16;;;;;;;10.40;4.07;;;;;;;;;;4993493;28;20249;-63
2023/03/01 00:06:45;;;;;;;8.95;4.65;;;;;;;;;;4993233;28;20223;-59
2023/03/01 00:09:16;;;;;;;9.45;4.45;;;;;;;;;;4992279;28;20727;-58
2023/03/01 00:11:42;;;;;;;7.93;3.88;;;;;;;;;;4992703;28;20163;-62
2023/03/01 00:14:08;;;;;;;7.82;4.35;;;;;;;;;;4993243;28;20467;-62
2023/03/01 00:16:38;;;;;;;7.90;4.40;;;;;;;;;;4993404;28;20496;-63
2023/03/01 00:19:04;;;;;;;7.18;4.03;;;;;;;;;;4992906;28;20159;-62
2023/03/01 00:21:30;;;;;;;5.68;4.40;;;;;;;;;;4993326;28;20532;-63
2023/03/01 00:23:56;;;;;;;9.85;4.40;;;;;;;;;;4993151;28;20199;-62
2023/03/01 00:26:25;;;;;;;4.95;3.53;;;;;;;;;;4993001;28;20784;-62
2023/03/01 00:28:51;;;;;;;4.55;3.22;;;;;;;;;;4993275;28;20236;-62
2023/03/01 00:31:21;;;;;;;6.53;3.50;;;;;;;;;;4992959;28;20163;-62
2023/03/01 00:33:47;;;;;;;4.55;3.03;;;;;;;;;;4994765;28;20270;-62
2023/03/01 00:36:14;;;;;;;7.32;3.38;;;;;;;;;;4997225;28;20208;-62
2023/03/01 00:38:42;;;;;;;5.78;3.70;;;;;;;;;;4994562;28;20171;-62
2023/03/01 00:41:09;;;;;;;5.78;3.63;;;;;;;;;;4997831;28;20213;-62
2023/03/01 00:43:36;;;;;;;6.25;3.30;;;;;;;;;;5004279;28;20195;-62
2023/03/01 00:46:03;;;;;;;6.53;3.88;;;;;;;;;;5002351;28;20186;-62
2023/03/01 00:48:29;;;;;;;5.93;3.50;;;;;;;;;;4995780;28;20186;-61
2023/03/01 00:50:56;;;;;;;5.47;3.83;;;;;;;;;;4995933;28;20556;-62
2023/03/01 00:53:21;;;;;;;7.60;3.83;;;;;;;;;;4999428;28;20565;-61
2023/03/01 00:55:47;;;;;;;4.60;3.45;;;;;;;;;;5000580;28;20178;-62
2023/03/01 00:58:13;;;;;;;6.55;3.67;;;;;;;;;;4998746;28;20181;-61
2023/03/01 01:00:39;;;;;;;6.72;4.03;;;;;;;;;;4997111;28;20171;-59
2023/03/01 01:03:05;;;;;;;6.78;4.30;;;;;;;;;;4996368;28;20194;-61
2023/03/01 01:05:31;;;;;;;8.07;4.05;;;;;;;;;;4995992;28;20183;-60
2023/03/01 01:07:57;;;;;;;7.38;3.70;;;;;;;;;;4996304;28;20178;-61
2023/03/01 01:10:23;;;;;;;5.80;3.65;;;;;;;;;;4996089;28;20208;-62
2023/03/01 01:12:49;;;;;;;6.03;3.60;;;;;;;;;;4995787;28;20174;-62
2023/03/01 01:15:16;;;;;;;6.72;4.13;;;;;;;;;;4995770;28;20167;-62
2023/03/01 01:17:42;;;;;;;4.97;3.22;;;;;;;;;;4996078;28;20171;-62
2023/03/01 01:20:09;;;;;;;7.90;3.90;;;;;;;;;;4995954;28;20194;-62
2023/03/01 01:22:35;;;;;;;7.63;3.63;;;;;;;;;;4995853;28;20481;-62
2023/03/01 01:25:01;;;;;;;5.88;3.28;;;;;;;;;;4995899;28;20159;-63
2023/03/01 01:27:27;;;;;;;5.57;3.40;;;;;;;;;;4995684;28;20673;-60
2023/03/01 01:29:55;;;;;;;6.53;3.60;;;;;;;;;;4995732;28;20203;-62
2023/03/01 01:32:21;;;;;;;4.93;3.42;;;;;;;;;;4995997;28;20163;-63
2023/03/01 01:34:47;;;;;;;4.63;3.20;;;;;;;;;;4995681;28;20499;-62
2023/03/01 01:37:13;;;;;;;5.50;3.45;;;;;;;;;;4995433;28;20531;-62
2023/03/01 01:39:39;;;;;;;5.90;3.45;;;;;;;;;;4995490;28;20219;-62
2023/03/01 01:42:05;;;;;;;6.53;3.63;;;;;;;;;;4995360;28;20481;-62
2023/03/01 01:44:31;;;;;;;10.18;4.25;;;;;;;;;;4995641;28;20515;-63
2023/03/01 01:46:59;;;;;;;5.00;3.60;;;;;;;;;;4995402;28;20625;-61
2023/03/01 01:49:28;;;;;;;6.72;3.83;;;;;;;;;;4995279;28;20191;-62
2023/03/01 01:51:58;;;;;;;4.60;3.47;;;;;;;;;;4995882;28;20232;-62
2023/03/01 01:54:26;;;;;;;4.90;3.25;;;;;;;;;;4995197;28;20171;-62
2023/03/01 01:56:55;;;;;;;5.70;3.38;;;;;;;;;;4995385;28;20274;-61
2023/03/01 01:59:24;;;;;;;5.68;3.38;;;;;;;;;;4996019;28;20193;-61
2023/03/01 02:01:50;;;;;;;7.32;3.70;;;;;;;;;;4995262;28;20679;-61
2023/03/01 02:04:16;;;;;;;5.38;3.83;;;;;;;;;;4994217;28;20221;-60
2023/03/01 02:06:47;;;;;;;5.57;3.47;;;;;;;;;;4995463;28;20232;-61
2023/03/01 02:09:14;;;;;;;4.60;3.60;;;;;;;;;;4995513;28;20226;-62
2023/03/01 02:11:40;;;;;;;6.82;3.40;;;;;;;;;;4995117;28;20167;-61
2023/03/01 02:14:06;;;;;;;9.45;3.92;;;;;;;;;;4994774;28;20174;-62
2023/03/01 02:16:32;;;;;;;6.32;3.55;;;;;;;;;;4995019;28;20174;-63
2023/03/01 02:18:59;;;;;;;7.40;4.00;;;;;;;;;;4994727;28;20694;-63
2023/03/01 02:21:38;;;;;;;5.55;3.45;;;;;;;;;;4994995;28;20175;-62
2023/03/01 02:24:24;;;;;;;5.80;3.63;;;;;;;;;;4994842;28;20258;-62
2023/03/01 02:26:52;;;;;;;5.63;3.63;;;;;;;;;;4994474;28;20182;-63
2023/03/01 02:29:18;;;;;;;7.88;3.50;;;;;;;;;;4994999;28;20189;-60
2023/03/01 02:31:44;;;;;;;5.82;3.80;;;;;;;;;;4994189;28;20209;-59
2023/03/01 02:34:14;;;;;;;5.78;3.53;;;;;;;;;;4994953;28;20167;-58
2023/03/01 02:36:48;;;;;;;4.60;3.50;;;;;;;;;;4994874;28;20181;-63
2023/03/01 02:39:18;;;;;;;5.50;3.40;;;;;;;;;;4994747;28;20181;-62
2023/03/01 02:41:47;;;;;;;6.28;3.80;;;;;;;;;;4994715;28;20167;-61
2023/03/01 02:44:13;;;;;;;5.88;3.38;;;;;;;;;;4994304;28;20190;-62
2023/03/01 02:46:53;;;;;;;4.82;3.30;;;;;;;;;;4994537;28;20175;-61
2023/03/01 02:49:27;;;;;;;5.35;3.95;;;;;;;;;;4994662;28;20155;-62
2023/03/01 02:51:53;;;;;;;6.40;3.97;;;;;;;;;;4994265;28;20678;-60
2023/03/01 02:54:38;;;;;;;4.60;3.33;;;;;;;;;;4994680;28;20179;-62
2023/03/01 02:57:04;;;;;;;6.35;3.80;;;;;;;;;;4994098;28;20629;-61
2023/03/01 02:59:32;;;;;;;6.43;3.90;;;;;;;;;;4994396;28;20183;-62
2023/03/01 03:01:58;;;;;;;6.38;3.72;;;;;;;;;;4994397;28;20175;-62
2023/03/01 03:04:24;;;;;;;5.28;3.63;;;;;;;;;;4993891;28;20199;-61
2023/03/01 03:06:51;;;;;;;5.57;3.90;;;;;;;;;;4994014;28;20182;-62
2023/03/01 03:09:17;;;;;;;5.78;4.05;;;;;;;;;;4993974;28;20203;-62
2023/03/01 03:11:44;;;;;;;7.10;4.22;;;;;;;;;;4993936;28;20174;-62
2023/03/01 03:14:12;;;;;;;6.90;4.30;;;;;;;;;;4994334;28;20194;-63
2023/03/01 03:16:48;;;;;;;8.77;4.63;;;;;;;;;;4993825;28;20220;-61
2023/03/01 03:19:16;;;;;;;7.70;4.25;;;;;;;;;;4994132;28;20219;-63
2023/03/01 03:21:42;;;;;;;7.95;4.63;;;;;;;;;;4994130;28;20167;-61
2023/03/01 03:24:08;;;;;;;8.35;4.60;;;;;;;;;;4993678;28;20194;-61
2023/03/01 03:26:34;;;;;;;8.40;4.88;;;;;;;;;;4993971;28;20167;-62
2023/03/01 03:29:00;;;;;;;6.90;4.20;;;;;;;;;;4994056;28;20175;-60
2023/03/01 03:31:27;;;;;;;7.35;4.82;;;;;;;;;;4995488;28;20518;-61
2023/03/01 03:33:53;;;;;;;6.53;3.72;;;;;;;;;;4996533;28;20620;-62
2023/03/01 03:36:20;;;;;;;7.88;4.82;;;;;;;;;;4994873;28;20281;-61
2023/03/01 03:38:47;;;;;;;7.30;4.60;;;;;;;;;;4993892;28;20167;-61
2023/03/01 03:41:13;;;;;;;8.25;4.45;;;;;;;;;;4992972;28;20175;-62
2023/03/01 03:43:40;;;;;;;6.10;4.10;;;;;;;;;;4993859;28;20198;-61
2023/03/01 03:46:06;;;;;;;6.07;4.18;;;;;;;;;;4993771;28;20166;-62
2023/03/01 03:48:34;;;;;;;8.18;4.18;;;;;;;;;;4993761;28;20504;-62
2023/03/01 03:51:00;;;;;;;6.25;4.22;;;;;;;;;;4993719;28;20163;-61
2023/03/01 03:53:27;;;;;;;7.50;4.80;;;;;;;;;;4993842;28;20636;-62
2023/03/01 03:55:53;;;;;;;8.02;5.00;;;;;;;;;;4993667;28;20179;-62
2023/03/01 03:58:20;;;;;;;7.18;4.75;;;;;;;;;;4993561;28;20203;-62
2023/03/01 04:00:47;;;;;;;9.32;4.72;;;;;;;;;;4993711;28;20171;-62
2023/03/01 04:03:15;;;;;;;7.40;5.30;;;;;;;;;;4993172;28;20190;-62
2023/03/01 04:05:41;;;;;;;8.23;4.65;;;;;;;;;;4993296;28;20197;-62
2023/03/01 04:08:08;;;;;;;9.45;5.07;;;;;;;;;;4993690;28;20167;-61
2023/03/01 04:10:45;;;;;;;8.48;5.07;;;;;;;;;;4993586;28;20151;-62
2023/03/01 04:13:13;;;;;;;7.40;4.38;;;;;;;;;;4993336;28;20226;-60
2023/03/01 04:15:39;;;;;;;7.90;4.47;;;;;;;;;;4993334;28;20170;-62
2023/03/01 04:18:06;;;;;;;7.68;4.95;;;;;;;;;;4993411;28;20182;-62
2023/03/01 04:20:34;;;;;;;8.75;4.72;;;;;;;;;;4993329;28;20167;-61
2023/03/01 04:23:10;;;;;;;7.97;4.80;;;;;;;;;;4993293;28;20260;-61
2023/03/01 04:25:38;;;;;;;7.63;4.53;;;;;;;;;;4994005;28;20212;-59
2023/03/01 04:28:04;;;;;;;6.13;4.38;;;;;;;;;;4992353;28;20167;-62
2023/03/01 04:30:35;;;;;;;6.18;4.03;;;;;;;;;;4992154;28;20205;-62
2023/03/01 04:33:01;;;;;;;8.27;4.25;;;;;;;;;;5005184;28;20170;-62
2023/03/01 04:35:27;;;;;;;9.00;4.45;;;;;;;;;;5009428;28;20162;-62
2023/03/01 04:37:53;;;;;;;6.18;4.15;;;;;;;;;;5000635;28;20291;-63
2023/03/01 04:40:21;;;;;;;8.32;5.20;;;;;;;;;;4998421;28;20175;-63
2023/03/01 04:42:47;;;;;;;8.75;4.78;;;;;;;;;;4997350;28;20610;-62
2023/03/01 04:45:13;;;;;;;9.43;5.15;;;;;;;;;;4996298;28;20198;-62
2023/03/01 04:47:44;;;;;;;9.27;4.65;;;;;;;;;;4999071;28;20171;-62
2023/03/01 04:50:12;;;;;;;9.13;5.20;;;;;;;;;;4993985;28;20191;-61
2023/03/01 04:52:38;;;;;;;9.45;5.20;;;;;;;;;;4993287;28;20171;-61
2023/03/01 04:55:05;;;;;;;12.02;5.80;;;;;;;;;;4993693;28;20167;-61
2023/03/01 04:57:31;;;;;;;9.38;5.65;;;;;;;;;;4993901;28;20167;-60
2023/03/01 04:59:57;;;;;;;11.18;6.20;;;;;;;;;;4994541;28;20182;-61
2023/03/01 05:02:23;;;;;;;9.18;5.82;;;;;;;;;;4993890;28;20175;-62
2023/03/01 05:04:49;;;;;;;11.40;5.93;;;;;;;;;;4993266;28;20211;-61
2023/03/01 05:07:19;;;;;;;8.95;5.45;;;;;;;;;;4993100;28;20163;-62
2023/03/01 05:09:45;;;;;;;9.90;6.57;;;;;;;;;;4993051;28;20185;-62
2023/03/01 05:12:11;;;;;;;15.35;6.25;;;;;;;;;;4992525;28;20664;-62
2023/03/01 05:14:38;;;;;;;9.88;5.50;;;;;;;;;;4992999;28;20175;-60
2023/03/01 05:17:04;;;;;;;10.70;5.93;;;;;;;;;;4992556;28;20181;-61
2023/03/01 05:19:30;;;;;;;12.25;6.15;;;;;;;;;;4992694;28;20163;-61
2023/03/01 05:22:05;;;;;;;10.82;6.13;;;;;;;;;;4992466;28;20482;-61
2023/03/01 05:24:32;;;;;;;13.23;6.38;;;;;;;;;;4991806;28;20240;-62
2023/03/01 05:26:59;;;;;;;13.43;6.57;;;;;;;;;;4992641;28;20225;-62
2023/03/01 05:29:26;;;;;;;10.73;5.70;;;;;;;;;;4992494;28;20534;-61
2023/03/01 05:31:56;;;;;;;11.07;6.78;;;;;;;;;;4992481;28;20198;-60
2023/03/01 05:34:29;;;;;;;10.43;6.13;;;;;;;;;;4992479;28;20171;-60
2023/03/01 05:36:55;;;;;;;10.60;6.32;;;;;;;;;;4992238;28;20170;-61
2023/03/01 05:39:22;;;;;;;11.50;6.63;;;;;;;;;;4993952;28;20178;-62
2023/03/01 05:41:48;;;;;;;10.77;6.55;;;;;;;;;;4995724;28;20185;-61
2023/03/01 05:44:15;;;;;;;10.82;6.65;;;;;;;;;;4995697;28;20240;-61
2023/03/01 05:46:41;;;;;;;9.77;5.70;;;;;;;;;;4996426;28;20256;-59
2023/03/01 05:49:08;;;;;;;10.25;6.88;;;;;;;;;;4996171;28;20598;-61
2023/03/01 05:51:34;;;;;;;10.27;6.40;;;;;;;;;;4995950;28;20175;-61
2023/03/01 05:54:00;;;;;;;9.02;6.15;;;;;;;;;;4995370;28;20179;-62
2023/03/01 05:56:26;;;;;;;12.07;6.90;;;;;;;;;;4996135;28;20210;-62
2023/03/01 05:58:52;;;;;;;13.63;7.10;;;;;;;;;;4995400;28;20171;-62
2023/03/01 06:01:18;;;;;;;12.13;7.47;;;;;;;;;;4995629;28;20220;-61
2023/03/01 06:03:44;;;;;;;11.32;6.45;;;;;;;;;;4995403;28;20308;-59
2023/03/01 06:06:10;;;;;;;12.45;6.95;;;;;;;;;;4995274;28;20159;-60
2023/03/01 06:08:37;;;;;;;11.02;7.05;;;;;;;;;;4995123;28;20167;-60
2023/03/01 06:11:03;;;;;;;14.32;7.97;;;;;;;;;;4995261;28;20198;-61
2023/03/01 06:13:29;;;;;;;12.63;7.20;;;;;;;;;;4995278;28;20171;-61
2023/03/01 06:15:55;;;;;;;13.35;7.70;;;;;;;;;;4995261;28;20171;-62
2023/03/01 06:18:22;;;;;;;11.18;6.32;;;;;;;;;;4995261;28;20491;-61
2023/03/01 06:20:53;;;;;;;13.30;7.43;;;;;;;;;;4995241;28;20171;-62
2023/03/01 06:23:19;;;;;;;14.13;7.43;;;;;;;;;;4994963;28;20282;-61
2023/03/01 06:25:45;;;;;;;10.95;6.40;;;;;;;;;;4995029;28;20254;-60
2023/03/01 06:28:11;;;;;;;11.07;6.65;;;;;;;;;;4994719;28;20220;-62
2023/03/01 06:30:37;;;;;;;10.13;6.70;;;;;;;;;;4994928;28;20446;-61
2023/03/01 06:33:03;;;;;;;11.40;6.88;;;;;;;;;;4994559;28;20167;-62
2023/03/01 06:35:29;;;;;;;9.52;5.97;;;;;;;;;;4994704;28;20264;-61
2023/03/01 06:37:55;;;;;;;9.65;6.25;;;;;;;;;;4994884;28;20182;-63
2023/03/01 06:40:22;;;;;;;13.18;7.07;;;;;;;;;;4994377;28;20550;-61
2023/03/01 06:42:49;;;;;;;12.30;7.30;;;;;;;;;;4994467;28;20171;-60
2023/03/01 06:45:15;;;;;;;11.98;8.05;;;;;;;;;;4994671;28;20183;-61
2023/03/01 06:47:41;;;;;;;15.48;8.85;;;;;;;;;;4994741;28;20166;-61
2023/03/01 06:50:07;;;;;;;15.73;8.63;;;;;;;;;;4993767;28;20681;-62
2023/03/01 06:52:33;;;;;;;17.15;9.50;;;;;;;;;;4994153;28;20158;-59
2023/03/01 06:54:59;;;;;;;18.65;9.82;;;;;;;;;;4994250;28;20506;-61
2023/03/01 06:57:26;;;;;;;25.30;12.52;;;;;;;;;;4994396;28;20171;-61
2023/03/01 06:59:51;;;;;;;25.48;11.57;;;;;;;;;;4994225;28;20546;-60
2023/03/01 07:02:18;;;;;;;22.63;13.07;;;;;;;;;;4994160;28;20167;-57
2023/03/01 07:04:44;;;;;;;22.77;12.15;;;;;;;;;;4993864;28;20207;-61
2023/03/01 07:07:10;;;;;;;26.17;12.55;;;;;;;;;;4994327;28;20181;-62
2023/03/01 07:09:36;;;;;;;21.17;12.38;;;;;;;;;;4994355;28;20167;-61
2023/03/01 07:12:02;;;;;;;26.55;13.95;;;;;;;;;;4994479;28;20254;-59
2023/03/01 07:14:28;;;;;;;28.42;15.02;;;;;;;;;;4994780;28;20175;-60
2023/03/01 07:16:54;;;;;;;28.83;14.93;;;;;;;;;;4994552;28;20300;-61
2023/03/01 07:19:21;;;;;;;25.95;13.90;;;;;;;;;;4994347;28;20590;-62
2023/03/01 07:21:47;;;;;;;30.42;15.90;;;;;;;;;;4994207;28;20691;-61
2023/03/01 07:24:13;;;;;;;26.40;14.00;;;;;;;;;;4993910;28;20523;-61
2023/03/01 07:26:39;;;;;;;27.35;14.95;;;;;;;;;;4994000;28;20202;-60
2023/03/01 07:29:06;;;;;;;25.58;13.93;;;;;;;;;;4994574;28;20527;-60
2023/03/01 07:31:32;;;;;;;27.83;14.70;;;;;;;;;;4994381;28;20504;-61
2023/03/01 07:33:58;;;;;;;25.98;14.50;;;;;;;;;;4994499;28;20616;-60
2023/03/01 07:36:24;;;;;;;32.83;14.95;;;;;;;;;;4993678;28;20259;-60
2023/03/01 07:38:51;;;;;;;22.58;12.57;;;;;;;;;;4994058;28;20163;-62
2023/03/01 07:41:17;;;;;;;26.55;14.18;;;;;;;;;;4993755;28;20240;-60
2023/03/01 07:43:43;;;;;;;24.42;13.63;;;;;;;;;;4993636;28;20191;-62
2023/03/01 07:46:09;;;;;;;25.52;13.40;;;;;;;;;;4993716;28;20185;-62
2023/03/01 07:48:35;;;;;;;25.63;13.85;;;;;;;;;;4993347;28;20225;-61
2023/03/01 07:51:01;;;;;;;27.67;13.95;;;;;;;;;;4993380;28;20223;-60
2023/03/01 07:53:28;;;;;;;28.65;15.52;;;;;;;;;;4993524;28;20171;-60
2023/03/01 07:56:04;;;;;;;27.83;14.20;;;;;;;;;;4993710;28;20175;-58
2023/03/01 07:58:32;;;;;;;40.90;15.32;;;;;;;;;;4993215;28;20262;-60
2023/03/01 08:01:01;;;;;;;63.05;14.68;;;;;;;;;;4993508;28;20173;-59
2023/03/01 08:03:27;;;;;;;47.58;14.07;;;;;;;;;;4992881;28;20642;-60
2023/03/01 08:05:53;;;;;;;62.45;13.57;;;;;;;;;;4992864;28;20183;-61
2023/03/01 08:08:19;;;;;;;45.17;15.45;;;;;;;;;;4993980;28;20359;-61
2023/03/01 08:10:45;;;;;;;49.28;14.35;;;;;;;;;;4993158;28;20616;-61
2023/03/01 08:13:11;;;;;;;50.78;15.77;;;;;;;;;;4993377;28;20502;-62
2023/03/01 08:15:37;;;;;;;59.05;15.70;;;;;;;;;;4993009;28;20207;-59
2023/03/01 08:18:02;;;;;;;36.55;15.07;;;;;;;;;;4992927;28;20170;-60
2023/03/01 08:20:29;;;;;;;50.03;16.33;;;;;;;;;;4993396;28;20162;-60
2023/03/01 08:22:55;;;;;;;37.13;14.40;;;;;;;;;;4994190;28;20265;-60
2023/03/01 08:25:22;;;;;;;44.63;14.23;;;;;;;;;;4994149;28;20236;-61
2023/03/01 08:27:48;;;;;;;39.53;14.82;;;;;;;;;;4994186;28;20228;-60
2023/03/01 08:30:14;;;;;;;57.95;14.98;;;;;;;;;;4994183;28;20527;-61
2023/03/01 08:32:40;;;;;;;37.72;14.38;;;;;;;;;;4996097;28;20166;-60
2023/03/01 08:35:06;;;;;;;40.70;13.98;;;;;;;;;;4996601;28;20178;-61
2023/03/01 08:37:32;;;;;;;35.63;14.15;;;;;;;;;;4994520;28;20274;-61
2023/03/01 08:39:58;;;;;;;32.90;14.15;;;;;;;;;;4993785;28;20190;-60
2023/03/01 08:42:24;;;;;;;35.65;14.00;;;;;;;;;;4993181;28;20178;-59
2023/03/01 08:44:50;;;;;;;37.20;13.98;;;;;;;;;;4993204;28;20197;-60
2023/03/01 08:47:16;;;;;;;34.10;13.93;;;;;;;;;;4992622;28;20167;-60
2023/03/01 08:49:42;;;;;;;27.80;14.15;;;;;;;;;;4992876;28;20171;-60
2023/03/01 08:52:08;;;;;;;42.78;14.23;;;;;;;;;;4992778;28;20181;-61
2023/03/01 08:54:34;;;;;;;32.88;12.88;;;;;;;;;;4992902;28;20210;-61
2023/03/01 08:57:02;;;;;;;27.88;13.10;;;;;;;;;;4994041;28;20171;-60
2023/03/01 08:59:29;;;;;;;44.25;14.25;;;;;;;;;;4993857;28;20185;-59
2023/03/01 09:01:55;;;;;;;35.72;13.60;;;;;;;;;;4994221;28;20499;-58
2023/03/01 09:04:21;;;;;;;33.47;14.20;;;;;;;;;;4993735;28;20206;-60
2023/03/01 09:06:48;;;;;;;42.70;14.65;;;;;;;;;;4993981;28;20159;-60
2023/03/01 09:09:18;;;;;;;68.35;15.20;;;;;;;;;;4993986;28;20187;-59
2023/03/01 09:11:49;;;;;;;45.05;14.07;;;;;;;;;;4994625;28;20175;-61
2023/03/01 09:14:16;;;;;;;30.05;13.75;;;;;;;;;;4996298;28;20159;-61
2023/03/01 09:16:42;;;;;;;43.88;14.95;;;;;;;;;;4998099;28;20171;-60
2023/03/01 09:19:08;;;;;;;55.90;14.57;;;;;;;;;;4998409;28;20620;-61
2023/03/01 09:21:34;;;;;;;30.42;14.48;;;;;;;;;;4998694;28;20181;-60
2023/03/01 09:23:59;;;;;;;48.17;14.82;;;;;;;;;;4997851;28;20198;-59
2023/03/01 09:26:25;;;;;;;47.33;13.98;;;;;;;;;;4997301;28;20175;-60
2023/03/01 09:28:53;;;;;;;60.78;16.27;;;;;;;;;;4998007;28;20170;-60
2023/03/01 09:31:20;;;;;;;39.38;15.15;;;;;;;;;;4997375;28;20612;-59
2023/03/01 09:33:47;;;;;;;34.20;15.10;;;;;;;;;;4997717;28;20175;-59
2023/03/01 09:36:14;;;;;;;28.90;14.98;;;;;;;;;;4997631;28;20231;-61
2023/03/01 09:38:40;;;;;;;29.60;16.17;;;;;;;;;;4997678;28;20503;-62
2023/03/01 09:41:10;;;;;;;29.60;14.93;;;;;;;;;;4996990;28;20182;-62
2023/03/01 09:43:59;;;;;;;28.88;14.05;;;;;;;;;;4997282;28;20195;-61
2023/03/01 09:46:25;;;;;;;26.60;14.20;;;;;;;;;;4996973;28;20163;-61
2023/03/01 09:49:01;;;;;;;43.10;14.73;;;;;;;;;;4997123;28;20210;-61
2023/03/01 09:51:31;;;;;;;38.67;14.38;;;;;;;;;;4996551;28;20605;-60
2023/03/01 09:53:58;;;;;;;35.03;15.00;;;;;;;;;;4996669;28;20182;-61
2023/03/01 09:56:47;;;;;;;37.95;15.48;;;;;;;;;;4996738;28;20247;-60
2023/03/01 09:59:33;;;;;;;30.55;15.82;;;;;;;;;;4996873;28;20167;-60
2023/03/01 10:02:03;;;;;;;34.97;15.52;;;;;;;;;;4996509;28;20179;-58
2023/03/01 10:04:46;;;;;;;29.83;14.95;;;;;;;;;;4996524;28;20271;-60
2023/03/01 10:07:14;;;;;;;39.15;15.30;;;;;;;;;;4996394;28;20167;-60
2023/03/01 10:09:42;;;;;;;31.80;15.70;;;;;;;;;;4996168;28;20167;-60
2023/03/01 10:12:13;;;;;;;41.00;15.70;;;;;;;;;;4996257;28;20213;-58
2023/03/01 10:15:02;;;;;;;40.55;15.13;;;;;;;;;;4996673;28;20511;-61
2023/03/01 10:17:34;;;;;;;29.45;15.02;;;;;;;;;;5006118;28;20183;-60
2023/03/01 10:20:15;;;;;;;30.42;14.68;;;;;;;;;;4997068;28;20188;-59
2023/03/01 10:22:41;;;;;;;35.13;16.05;;;;;;;;;;4997090;28;20195;-60
2023/03/01 10:25:07;;;;;;;28.73;15.55;;;;;;;;;;4995484;28;20234;-61
2023/03/01 10:27:33;;;;;;;27.60;15.23;;;;;;;;;;4994847;28;20167;-60
2023/03/01 10:30:05;;;;;;;31.63;15.93;;;;;;;;;;4994939;28;20167;-63
2023/03/01 10:32:32;;;;;;;34.45;15.85;;;;;;;;;;4995081;28;20238;-62
2023/03/01 10:34:58;;;;;;;28.02;14.98;;;;;;;;;;4995082;28;20218;-61
2023/03/01 10:37:26;;;;;;;29.63;15.80;;;;;;;;;;4994539;28;20320;-61
2023/03/01 10:40:10;;;;;;;45.30;18.08;;;;;;;;;;4995303;28;20304;-63
2023/03/01 10:42:38;;;;;;;31.65;16.13;;;;;;;;;;4995577;28;20171;-61
2023/03/01 10:45:23;;;;;;;30.92;16.77;;;;;;;;;;4996307;28;20198;-61
2023/03/01 10:48:03;;;;;;;30.90;16.25;;;;;;;;;;4996132;28;20194;-62
2023/03/01 10:50:29;;;;;;;30.23;17.38;;;;;;;;;;4996479;28;20234;-60
2023/03/01 10:53:02;;;;;;;32.40;17.35;;;;;;;;;;4995976;28;20228;-62
2023/03/01 10:55:31;;;;;;;35.67;17.92;;;;;;;;;;4995871;28;20175;-61
2023/03/01 10:58:18;;;;;;;33.90;16.90;;;;;;;;;;4996017;28;20167;-60
2023/03/01 11:00:47;;;;;;;29.95;15.50;;;;;;;;;;4996628;28;20170;-61
2023/03/01 11:03:15;;;;;;;27.80;16.23;;;;;;;;;;4995907;28;22200;-60
2023/03/01 11:05:51;;;;;;;31.73;16.88;;;;;;;;;;4994607;28;20243;-60
2023/03/01 11:08:29;;;;;;;31.77;16.77;;;;;;;;;;4995454;28;20231;-60
2023/03/01 11:11:04;;;;;;;30.15;16.27;;;;;;;;;;4995215;28;20227;-59
2023/03/01 11:13:30;;;;;;;25.95;14.88;;;;;;;;;;4994687;28;20166;-60
2023/03/01 11:16:00;;;;;;;30.25;15.95;;;;;;;;;;4994687;28;20194;-60
2023/03/01 11:18:26;;;;;;;27.15;14.65;;;;;;;;;;4993876;28;20671;-60
2023/03/01 11:20:53;;;;;;;29.70;15.98;;;;;;;;;;4993894;28;20187;-60
2023/03/01 11:23:20;;;;;;;28.23;15.73;;;;;;;;;;4994214;28;20656;-60
2023/03/01 11:25:49;;;;;;;27.15;15.15;;;;;;;;;;4994232;28;20189;-58
2023/03/01 11:28:17;;;;;;;29.02;15.77;;;;;;;;;;4994080;28;20171;-60
2023/03/01 11:31:05;;;;;;;28.63;16.10;;;;;;;;;;4994505;28;20620;-61
2023/03/01 11:33:44;;;;;;;30.60;15.98;;;;;;;;;;4994545;28;20504;-60
2023/03/01 11:36:15;;;;;;;28.48;15.05;;;;;;;;;;4993813;28;20517;-61
2023/03/01 11:38:41;;;;;;;28.50;16.00;;;;;;;;;;4994432;28;20175;-60
2023/03/01 11:41:16;;;;;;;29.25;16.95;;;;;;;;;;4994523;28;20179;-59
2023/03/01 11:43:49;;;;;;;30.88;16.50;;;;;;;;;;4995202;28;20289;-62
2023/03/01 11:46:33;;;;;;;30.15;16.20;;;;;;;;;;4995377;28;20213;-61
2023/03/01 11:49:05;;;;;;;32.75;16.75;;;;;;;;;;4996009;28;20185;-62
2023/03/01 11:51:31;;;;;;;29.83;16.30;;;;;;;;;;4997078;28;20163;-61
2023/03/01 11:54:15;;;;;;;29.67;16.55;;;;;;;;;;4997174;28;20185;-62
2023/03/01 11:56:50;;;;;;;34.15;16.30;;;;;;;;;;4995781;28;20175;-62
2023/03/01 11:59:28;;;;;;;33.33;16.48;;;;;;;;;;4996098;28;20175;-60
2023/03/01 12:01:57;;;;;;;31.33;16.02;;;;;;;;;;4996181;28;20339;-62
2023/03/01 12:04:35;;;;;;;27.15;15.55;;;;;;;;;;4996122;28;20194;-61
2023/03/01 12:07:05;;;;;;;35.47;16.42;;;;;;;;;;4998571;28;20171;-60
2023/03/01 12:09:49;;;;;;;32.95;16.52;;;;;;;;;;4999036;28;20182;-60
2023/03/01 12:12:21;;;;;;;31.88;16.55;;;;;;;;;;4999167;28;20155;-62
2023/03/01 12:14:55;;;;;;;33.60;17.70;;;;;;;;;;4998666;28;20293;-61
2023/03/01 12:17:24;;;;;;;30.58;15.68;;;;;;;;;;4997980;28;20162;-60
2023/03/01 12:20:03;;;;;;;31.08;15.70;;;;;;;;;;4999756;28;20216;-61
2023/03/01 12:22:30;;;;;;;31.33;16.05;;;;;;;;;;4997657;28;20520;-61
2023/03/01 12:25:12;;;;;;;29.95;15.65;;;;;;;;;;4996436;28;20527;-59
2023/03/01 12:28:00;;;;;;;29.40;15.70;;;;;;;;;;4996390;28;20485;-62
2023/03/01 12:30:31;;;;;;;36.65;16.30;;;;;;;;;;4994608;28;20566;-60
2023/03/01 12:33:18;;;;;;;33.63;16.73;;;;;;;;;;4993194;28;20155;-61
2023/03/01 12:36:10;;;;;;;30.33;15.75;;;;;;;;;;4993690;28;20189;-61
2023/03/01 12:38:46;;;;;;;27.48;14.63;;;;;;;;;;5024957;28;20171;-61
2023/03/01 12:41:15;;;;;;;28.10;14.90;;;;;;;;;;4993356;28;20178;-60
2023/03/01 12:44:00;;;;;;;28.30;13.80;;;;;;;;;;4993657;28;20195;-62
2023/03/01 12:46:33;;;;;;;26.25;14.85;;;;;;;;;;4994697;28;20171;-62
2023/03/01 12:49:05;;;;;;;29.05;15.23;;;;;;;;;;4995398;28;20527;-59
2023/03/01 12:51:33;;;;;;;27.63;14.20;;;;;;;;;;4998017;28;20174;-64
2023/03/01 12:54:00;;;;;;;28.67;14.75;;;;;;;;;;4998860;28;20522;-58
2023/03/01 12:56:29;;;;;;;27.40;14.07;;;;;;;;;;4998061;28;20666;-63
2023/03/01 12:58:55;;;;;;;25.98;13.43;;;;;;;;;;4998042;28;20179;-61
2023/03/01 13:01:39;;;;;;;27.45;14.30;;;;;;;;;;4998219;28;20177;-62
2023/03/01 13:04:10;;;;;;;24.55;13.18;;;;;;;;;;4997870;28;20206;-60
2023/03/01 13:06:40;;;;;;;29.55;14.38;;;;;;;;;;4997846;28;20214;-61
2023/03/01 13:09:06;;;;;;;29.63;14.77;;;;;;;;;;4998094;28;20257;-60
2023/03/01 13:11:34;;;;;;;25.40;13.98;;;;;;;;;;4998611;28;20175;-60
2023/03/01 13:14:20;;;;;;;26.35;14.20;;;;;;;;;;4998268;28;20345;-61
2023/03/01 13:16:48;;;;;;;25.10;13.93;;;;;;;;;;5011574;28;20194;-62
2023/03/01 13:19:19;;;;;;;27.20;14.48;;;;;;;;;;4995876;28;20578;-59
2023/03/01 13:21:46;;;;;;;27.23;14.05;;;;;;;;;;4995843;28;20171;-61
2023/03/01 13:24:38;;;;;;;31.27;14.88;;;;;;;;;;4997388;28;20258;-60
2023/03/01 13:27:10;;;;;;;33.65;16.30;;;;;;;;;;5000482;28;20190;-59
2023/03/01 13:29:46;;;;;;;31.75;15.90;;;;;;;;;;4997378;28;20151;-60
2023/03/01 13:32:25;;;;;;;28.05;14.90;;;;;;;;;;4997179;28;20163;-62
2023/03/01 13:35:04;;;;;;;28.67;16.13;;;;;;;;;;4995692;28;20674;-62
2023/03/01 13:37:37;;;;;;;31.40;16.50;;;;;;;;;;4995523;28;20269;-61
2023/03/01 13:40:26;;;;;;;32.28;17.27;;;;;;;;;;4995919;28;20680;-61
2023/03/01 13:42:53;;;;;;;31.48;16.02;;;;;;;;;;4997869;28;20182;-61
2023/03/01 13:45:26;;;;;;;28.45;16.88;;;;;;;;;;4997235;28;20526;-62
2023/03/01 13:47:55;;;;;;;33.17;16.45;;;;;;;;;;4996787;28;20155;-62
2023/03/01 13:50:24;;;;;;;29.88;15.60;;;;;;;;;;4996214;28;20589;-60
2023/03/01 13:52:59;;;;;;;29.70;15.82;;;;;;;;;;4995770;28;20179;-62
2023/03/01 13:55:45;;;;;;;28.80;15.25;;;;;;;;;;4995893;28;20189;-62
2023/03/01 13:58:25;;;;;;;30.33;15.60;;;;;;;;;;4995201;28;20253;-62
2023/03/01 14:01:08;;;;;;;35.10;15.57;;;;;;;;;;4994995;28;20175;-61
2023/03/01 14:03:41;;;;;;;34.72;15.77;;;;;;;;;;4997231;28;20225;-60
2023/03/01 14:06:13;;;;;;;31.10;16.40;;;;;;;;;;4997493;28;20659;-60
2023/03/01 14:08:41;;;;;;;36.55;16.85;;;;;;;;;;4995075;28;20155;-61
2023/03/01 14:11:25;;;;;;;36.03;16.35;;;;;;;;;;4995275;28;20228;-61
2023/03/01 14:14:00;;;;;;;36.28;16.80;;;;;;;;;;4995111;28;20175;-61
2023/03/01 14:16:50;;;;;;;36.08;18.10;;;;;;;;;;4995238;28;20170;-62
2023/03/01 14:19:25;;;;;;;40.63;17.92;;;;;;;;;;4994963;28;20164;-62
2023/03/01 14:22:00;;;;;;;41.63;18.38;;;;;;;;;;4995267;28;20155;-61
2023/03/01 14:24:27;;;;;;;30.00;15.02;;;;;;;;;;4994901;28;20251;-64
2023/03/01 14:26:53;;;;;;;35.85;16.50;;;;;;;;;;4995193;28;20609;-60
2023/03/01 14:29:26;;;;;;;35.40;16.35;;;;;;;;;;4995695;28;20231;-61
2023/03/01 14:31:52;;;;;;;32.40;15.63;;;;;;;;;;4994868;28;20616;-60
2023/03/01 14:34:22;;;;;;;30.42;15.35;;;;;;;;;;4994933;28;20207;-58
2023/03/01 14:36:48;;;;;;;29.58;14.85;;;;;;;;;;4995076;28;20269;-61
2023/03/01 14:39:17;;;;;;;28.30;14.88;;;;;;;;;;4995135;28;20247;-58
2023/03/01 14:41:44;;;;;;;33.85;13.15;;;;;;;;;;4994910;28;20336;-60